sensor_id;sensor_type;location;lat;lon;timestamp;pressure;altitude;pressure_sealevel;temperature;humidity
27984;BME280;15317;50.360;8.726;2023-04-01T00:03:27;97670.09;;;8.70;100.00
27984;BME280;15317;50.360;8.726;2023-04-01T00:07:29;97666.28;;;8.65;100.00
27984;BME280;15317;50.360;8.726;2023-04-01T00:11:33;97659.88;;;8.66;100.00
27984;BME280;15317;50.360;8.726;2023-04-01T00:15:36;97660.47;;;8.68;100.00
27984;BME280;15317;50.360;8.726;2023-04-01T00:19:38;97662.94;;;8.63;100.00
27984;BME280;15317;50.360;8.726;2023-04-01T00:23:40;97663.59;;;8.65;100.00
27984;BME280;15317;50.360;8.726;2023-04-01T00:27:43;97665.00;;;8.61;100.00
27984;BME280;15317;50.360;8.726;2023-04-01T00:31:46;97657.72;;;8.61;100.00
27984;BME280;15317;50.360;8.726;2023-04-01T00:35:49;97657.91;;;8.60;100.00
27984;BME280;15317;50.360;8.726;2023-04-01T00:39:50;97652.13;;;8.63;100.00
27984;BME280;15317;50.360;8.726;2023-04-01T00:44:19;97659.97;;;8.58;100.00
27984;BME280;15317;50.360;8.726;2023-04-01T00:48:23;97656.19;;;8.52;100.00
27984;BME280;15317;50.360;8.726;2023-04-01T00:52:26;97656.25;;;8.59;100.00
27984;BME280;15317;50.360;8.726;2023-04-01T00:56:32;97662.78;;;8.50;100.00
27984;BME280;15317;50.360;8.726;2023-04-01T01:00:37;97647.78;;;8.47;100.00
27984;BME280;15317;50.360;8.726;2023-04-01T01:04:40;97653.19;;;8.47;100.00
27984;BME280;15317;50.360;8.726;2023-04-01T01:08:52;97652.34;;;8.47;100.00
27984;BME280;15317;50.360;8.726;2023-04-01T01:13:01;97655.03;;;8.47;100.00
27984;BME280;15317;50.360;8.726;2023-04-01T01:17:12;97649.63;;;8.47;100.00
27984;BME280;15317;50.360;8.726;2023-04-01T01:21:33;97651.91;;;8.43;100.00
27984;BME280;15317;50.360;8.726;2023-04-01T01:25:50;97641.16;;;8.50;100.00
27984;BME280;15317;50.360;8.726;2023-04-01T01:30:09;97648.34;;;8.43;100.00
27984;BME280;15317;50.360;8.726;2023-04-01T01:34:19;97644.63;;;8.44;100.00
27984;BME280;15317;50.360;8.726;2023-04-01T01:38:28;97645.66;;;8.43;100.00
27984;BME280;15317;50.360;8.726;2023-04-01T01:42:36;97643.66;;;8.51;100.00
27984;BME280;15317;50.360;8.726;2023-04-01T01:46:39;97638.63;;;8.48;100.00
27984;BME280;15317;50.360;8.726;2023-04-01T01:50:44;97647.34;;;8.44;100.00
27984;BME280;15317;50.360;8.726;2023-04-01T01:54:49;97639.47;;;8.49;100.00
27984;BME280;15317;50.360;8.726;2023-04-01T01:58:52;97633.88;;;8.50;100.00
27984;BME280;15317;50.360;8.726;2023-04-01T02:02:57;97639.59;;;8.41;100.00
27984;BME280;15317;50.360;8.726;2023-04-01T02:07:02;97636.63;;;8.36;100.00
27984;BME280;15317;50.360;8.726;2023-04-01T02:11:09;97645.47;;;8.29;100.00
27984;BME280;15317;50.360;8.726;2023-04-01T02:15:13;97640.06;;;8.29;100.00
27984;BME280;15317;50.360;8.726;2023-04-01T02:19:17;97630.66;;;8.25;100.00
27984;BME280;15317;50.360;8.726;2023-04-01T02:23:23;97642.50;;;8.24;100.00
27984;BME280;15317;50.360;8.726;2023-04-01T02:27:26;97646.91;;;8.25;100.00
27984;BME280;15317;50.360;8.726;2023-04-01T02:31:28;97644.91;;;8.19;100.00
27984;BME280;15317;50.360;8.726;2023-04-01T02:35:32;97637.38;;;8.15;100.00
27984;BME280;15317;50.360;8.726;2023-04-01T02:39:35;97643.91;;;8.20;100.00
27984;BME280;15317;50.360;8.726;2023-04-01T02:43:39;97646.06;;;8.10;100.00
27984;BME280;15317;50.360;8.726;2023-04-01T02:47:41;97644.00;;;8.12;100.00
27984;BME280;15317;50.360;8.726;2023-04-01T02:51:43;97644.75;;;8.06;100.00
27984;BME280;15317;50.360;8.726;2023-04-01T02:55:45;97645.06;;;8.11;100.00
27984;BME280;15317;50.360;8.726;2023-04-01T02:59:48;97650.47;;;8.11;100.00
27984;BME280;15317;50.360;8.726;2023-04-01T03:03:50;97630.78;;;8.03;100.00
27984;BME280;15317;50.360;8.726;2023-04-01T03:07:52;97634.97;;;8.05;100.00
27984;BME280;15317;50.360;8.726;2023-04-01T03:11:54;97643.75;;;8.07;100.00
27984;BME280;15317;50.360;8.726;2023-04-01T03:15:57;97642.28;;;8.05;100.00
27984;BME280;15317;50.360;8.726;2023-04-01T03:20:00;97637.66;;;8.05;100.00
27984;BME280;15317;50.360;8.726;2023-04-01T03:24:03;97642.81;;;8.00;100.00
27984;BME280;15317;50.360;8.726;2023-04-01T03:28:05;97645.06;;;7.97;100.00
27984;BME280;15317;50.360;8.726;2023-04-01T03:32:08;97640.50;;;7.97;100.00
27984;BME280;15317;50.360;8.726;2023-04-01T03:36:10;97649.25;;;7.99;100.00
27984;BME280;15317;50.360;8.726;2023-04-01T03:40:13;97644.50;;;8.01;100.00
27984;BME280;15317;50.360;8.726;2023-04-01T03:44:15;97644.22;;;7.96;100.00
27984;BME280;15317;50.360;8.726;2023-04-01T03:48:18;97648.41;;;7.99;100.00
27984;BME280;15317;50.360;8.726;2023-04-01T03:52:21;97644.88;;;7.98;100.00
27984;BME280;15317;50.360;8.726;2023-04-01T03:56:23;97660.44;;;7.96;100.00
27984;BME280;15317;50.360;8.726;2023-04-01T04:00:25;97651.69;;;7.94;100.00
27984;BME280;15317;50.360;8.726;2023-04-01T04:04:28;97657.09;;;7.94;100.00
27984;BME280;15317;50.360;8.726;2023-04-01T04:08:31;97640.78;;;7.87;100.00
27984;BME280;15317;50.360;8.726;2023-04-01T04:12:33;97643.97;;;7.91;100.00
27984;BME280;15317;50.360;8.726;2023-04-01T04:16:36;97644.59;;;7.93;100.00
27984;BME280;15317;50.360;8.726;2023-04-01T04:20:44;97633.50;;;7.88;100.00
27984;BME280;15317;50.360;8.726;2023-04-01T04:24:47;97640.88;;;7.94;100.00
27984;BME280;15317;50.360;8.726;2023-04-01T04:28:49;97639.19;;;7.93;100.00
27984;BME280;15317;50.360;8.726;2023-04-01T04:32:51;97637.91;;;7.89;100.00
27984;BME280;15317;50.360;8.726;2023-04-01T04:36:54;97640.88;;;7.94;100.00
27984;BME280;15317;50.360;8.726;2023-04-01T04:40:56;97637.91;;;7.89;100.00
27984;BME280;15317;50.360;8.726;2023-04-01T04:44:58;97639.75;;;7.88;100.00
27984;BME280;15317;50.360;8.726;2023-04-01T04:49:00;97647.03;;;7.88;100.00
27984;BME280;15317;50.360;8.726;2023-04-01T04:53:03;97648.72;;;7.89;100.00
27984;BME280;15317;50.360;8.726;2023-04-01T04:57:06;97645.81;;;7.90;100.00
27984;BME280;15317;50.360;8.726;2023-04-01T05:01:09;97652.44;;;7.88;100.00
27984;BME280;15317;50.360;8.726;2023-04-01T05:05:11;97647.88;;;7.88;100.00
27984;BME280;15317;50.360;8.726;2023-04-01T05:09:14;97645.34;;;7.87;100.00
27984;BME280;15317;50.360;8.726;2023-04-01T05:13:16;97647.94;;;7.95;100.00
27984;BME280;15317;50.360;8.726;2023-04-01T05:17:18;97652.25;;;7.89;100.00
27984;BME280;15317;50.360;8.726;2023-04-01T05:21:20;97646.19;;;7.87;100.00
27984;BME280;15317;50.360;8.726;2023-04-01T05:25:24;97639.75;;;7.88;100.00
27984;BME280;15317;50.360;8.726;2023-04-01T05:29:26;97651.16;;;7.84;100.00
27984;BME280;15317;50.360;8.726;2023-04-01T05:33:29;97642.06;;;7.91;100.00
27984;BME280;15317;50.360;8.726;2023-04-01T05:37:33;97643.75;;;7.92;100.00
27984;BME280;15317;50.360;8.726;2023-04-01T05:41:37;97638.91;;;7.88;100.00
27984;BME280;15317;50.360;8.726;2023-04-01T05:45:39;97633.59;;;7.94;100.00
27984;BME280;15317;50.360;8.726;2023-04-01T05:49:41;97641.53;;;7.96;100.00
27984;BME280;15317;50.360;8.726;2023-04-01T05:53:43;97635.09;;;7.97;100.00
27984;BME280;15317;50.360;8.726;2023-04-01T05:57:46;97638.06;;;8.02;100.00
27984;BME280;15317;50.360;8.726;2023-04-01T06:01:50;97631.25;;;8.06;100.00
27984;BME280;15317;50.360;8.726;2023-04-01T06:05:52;97638.59;;;8.12;100.00
27984;BME280;15317;50.360;8.726;2023-04-01T06:09:54;97640.28;;;8.13;100.00
27984;BME280;15317;50.360;8.726;2023-04-01T06:14:18;97638.13;;;8.23;100.00
27984;BME280;15317;50.360;8.726;2023-04-01T06:18:43;97635.78;;;8.20;100.00
27984;BME280;15317;50.360;8.726;2023-04-01T06:23:01;97640.53;;;8.33;100.00
27984;BME280;15317;50.360;8.726;2023-04-01T06:27:16;97638.88;;;8.32;100.00
27984;BME280;15317;50.360;8.726;2023-04-01T06:31:37;97631.03;;;8.37;100.00
27984;BME280;15317;50.360;8.726;2023-04-01T06:35:59;97646.31;;;8.45;100.00
27984;BME280;15317;50.360;8.726;2023-04-01T06:40:18;97640.50;;;8.48;100.00
27984;BME280;15317;50.360;8.726;2023-04-01T06:44:30;97641.88;;;8.58;100.00
27984;BME280;15317;50.360;8.726;2023-04-01T06:48:49;97658.94;;;8.59;100.00
27984;BME280;15317;50.360;8.726;2023-04-01T06:53:04;97655.19;;;8.60;100.00
27984;BME280;15317;50.360;8.726;2023-04-01T06:57:17;97651.34;;;8.69;100.00
27984;BME280;15317;50.360;8.726;2023-04-01T07:01:24;97648.88;;;8.74;100.00
27984;BME280;15317;50.360;8.726;2023-04-01T07:05:31;97648.63;;;8.90;100.00
27984;BME280;15317;50.360;8.726;2023-04-01T07:09:37;97656.22;;;9.01;100.00
27984;BME280;15317;50.360;8.726;2023-04-01T07:13:44;97658.81;;;9.09;100.00
27984;BME280;15317;50.360;8.726;2023-04-01T07:17:53;97668.41;;;9.12;100.00
27984;BME280;15317;50.360;8.726;2023-04-01T07:22:01;97658.47;;;9.19;100.00
27984;BME280;15317;50.360;8.726;2023-04-01T07:26:11;97657.22;;;9.22;100.00
27984;BME280;15317;50.360;8.726;2023-04-01T07:30:17;97657.75;;;9.32;100.00
27984;BME280;15317;50.360;8.726;2023-04-01T07:34:23;97655.97;;;9.45;100.00
27984;BME280;15317;50.360;8.726;2023-04-01T07:38:33;97665.00;;;9.52;100.00
27984;BME280;15317;50.360;8.726;2023-04-01T07:42:53;97663.53;;;9.57;100.00
27984;BME280;15317;50.360;8.726;2023-04-01T07:47:10;97667.25;;;9.83;100.00
27984;BME280;15317;50.360;8.726;2023-04-01T07:51:17;97670.19;;;10.16;100.00
27984;BME280;15317;50.360;8.726;2023-04-01T07:55:26;97664.22;;;10.34;100.00
27984;BME280;15317;50.360;8.726;2023-04-01T07:59:34;97683.97;;;10.62;100.00
27984;BME280;15317;50.360;8.726;2023-04-01T08:03:52;97681.84;;;10.64;100.00
27984;BME280;15317;50.360;8.726;2023-04-01T08:08:04;97681.50;;;10.87;100.00
27984;BME280;15317;50.360;8.726;2023-04-01T08:12:22;97685.69;;;10.83;100.00
27984;BME280;15317;50.360;8.726;2023-04-01T08:16:33;97688.53;;;10.62;100.00
27984;BME280;15317;50.360;8.726;2023-04-01T08:20:40;97692.44;;;10.46;100.00
27984;BME280;15317;50.360;8.726;2023-04-01T08:24:46;97701.50;;;10.19;100.00
27984;BME280;15317;50.360;8.726;2023-04-01T08:28:52;97700.78;;;10.10;100.00
27984;BME280;15317;50.360;8.726;2023-04-01T08:32:59;97701.41;;;10.06;100.00
27984;BME280;15317;50.360;8.726;2023-04-01T08:37:06;97697.16;;;9.97;100.00
27984;BME280;15317;50.360;8.726;2023-04-01T08:45:59;97710.13;;;10.29;100.00
27984;BME280;15317;50.360;8.726;2023-04-01T08:50:23;97700.50;;;10.26;100.00
27984;BME280;15317;50.360;8.726;2023-04-01T08:54:44;97712.50;;;10.11;100.00
27984;BME280;15317;50.360;8.726;2023-04-01T08:59:13;97706.38;;;10.30;100.00
27984;BME280;15317;50.360;8.726;2023-04-01T09:03:44;97713.78;;;10.15;100.00
27984;BME280;15317;50.360;8.726;2023-04-01T09:08:00;97705.63;;;10.15;100.00
27984;BME280;15317;50.360;8.726;2023-04-01T09:12:23;97720.84;;;10.09;100.00
27984;BME280;15317;50.360;8.726;2023-04-01T09:16:44;97713.00;;;10.21;100.00
27984;BME280;15317;50.360;8.726;2023-04-01T09:21:03;97721.03;;;10.42;100.00
27984;BME280;15317;50.360;8.726;2023-04-01T09:25:26;97720.84;;;10.09;100.00
27984;BME280;15317;50.360;8.726;2023-04-01T09:29:49;97724.38;;;10.44;100.00
27984;BME280;15317;50.360;8.726;2023-04-01T09:34:08;97721.78;;;10.64;100.00
27984;BME280;15317;50.360;8.726;2023-04-01T09:38:22;97733.25;;;10.73;100.00
27984;BME280;15317;50.360;8.726;2023-04-01T09:42:41;97729.13;;;10.83;100.00
27984;BME280;15317;50.360;8.726;2023-04-01T09:46:58;97737.91;;;10.92;100.00
27984;BME280;15317;50.360;8.726;2023-04-01T09:51:06;97743.94;;;10.81;100.00
27984;BME280;15317;50.360;8.726;2023-04-01T09:55:22;97736.22;;;10.78;100.00
27984;BME280;15317;50.360;8.726;2023-04-01T09:59:58;97739.69;;;10.58;100.00
27984;BME280;15317;50.360;8.726;2023-04-01T10:04:23;97744.84;;;10.47;100.00
27984;BME280;15317;50.360;8.726;2023-04-01T10:08:51;97754.47;;;10.49;100.00
27984;BME280;15317;50.360;8.726;2023-04-01T10:22:24;97747.88;;;10.72;100.00
27984;BME280;15317;50.360;8.726;2023-04-01T10:26:40;97753.69;;;10.62;100.00
27984;BME280;15317;50.360;8.726;2023-04-01T10:31:06;97752.03;;;10.67;100.00
27984;BME280;15317;50.360;8.726;2023-04-01T10:35:46;97751.88;;;10.76;100.00
27984;BME280;15317;50.360;8.726;2023-04-01T10:40:16;97757.69;;;10.73;100.00
27984;BME280;15317;50.360;8.726;2023-04-01T10:45:03;97754.53;;;10.62;100.00
27984;BME280;15317;50.360;8.726;2023-04-01T10:49:29;97755.56;;;10.61;100.00
27984;BME280;15317;50.360;8.726;2023-04-01T10:54:13;97752.50;;;10.71;100.00
27984;BME280;15317;50.360;8.726;2023-04-01T10:58:34;97753.50;;;10.63;100.00
27984;BME280;15317;50.360;8.726;2023-04-01T11:02:57;97748.94;;;10.71;100.00
27984;BME280;15317;50.360;8.726;2023-04-01T11:11:59;97755.81;;;10.73;100.00
27984;BME280;15317;50.360;8.726;2023-04-01T11:21:12;97763.78;;;10.75;100.00
27984;BME280;15317;50.360;8.726;2023-04-01T11:25:39;97761.69;;;10.77;100.00
27984;BME280;15317;50.360;8.726;2023-04-01T11:30:00;97772.75;;;10.75;100.00
27984;BME280;15317;50.360;8.726;2023-04-01T11:34:14;97762.16;;;10.87;100.00
27984;BME280;15317;50.360;8.726;2023-04-01T11:38:26;97767.63;;;11.00;100.00
27984;BME280;15317;50.360;8.726;2023-04-01T11:42:40;97768.09;;;11.17;100.00
27984;BME280;15317;50.360;8.726;2023-04-01T11:47:10;97775.25;;;11.51;100.00
27984;BME280;15317;50.360;8.726;2023-04-01T11:51:29;97790.75;;;11.70;100.00
27984;BME280;15317;50.360;8.726;2023-04-01T11:55:52;97794.53;;;11.95;100.00
27984;BME280;15317;50.360;8.726;2023-04-01T12:00:10;97796.22;;;11.83;100.00
27984;BME280;15317;50.360;8.726;2023-04-01T12:04:38;97805.03;;;11.92;100.00
27984;BME280;15317;50.360;8.726;2023-04-01T12:08:46;97806.06;;;11.77;100.00
27984;BME280;15317;50.360;8.726;2023-04-01T12:12:59;97801.88;;;11.75;100.00
27984;BME280;15317;50.360;8.726;2023-04-01T12:17:09;97808.53;;;11.66;100.00
27984;BME280;15317;50.360;8.726;2023-04-01T12:21:23;97816.25;;;11.69;100.00
27984;BME280;15317;50.360;8.726;2023-04-01T12:25:46;97814.59;;;11.68;100.00
27984;BME280;15317;50.360;8.726;2023-04-01T12:30:05;97806.22;;;11.63;100.00
27984;BME280;15317;50.360;8.726;2023-04-01T12:34:44;97807.91;;;11.64;100.00
27984;BME280;15317;50.360;8.726;2023-04-01T12:39:08;97815.84;;;11.65;100.00
27984;BME280;15317;50.360;8.726;2023-04-01T12:43:46;97826.75;;;11.65;100.00
27984;BME280;15317;50.360;8.726;2023-04-01T12:48:05;97814.22;;;11.84;100.00
27984;BME280;15317;50.360;8.726;2023-04-01T12:52:12;97821.75;;;11.82;100.00
27984;BME280;15317;50.360;8.726;2023-04-01T12:56:24;97820.91;;;12.01;100.00
27984;BME280;15317;50.360;8.726;2023-04-01T13:00:46;97826.78;;;12.11;100.00
27984;BME280;15317;50.360;8.726;2023-04-01T13:05:14;97829.28;;;12.19;100.00
27984;BME280;15317;50.360;8.726;2023-04-01T13:09:35;97837.44;;;12.33;100.00
27984;BME280;15317;50.360;8.726;2023-04-01T13:14:08;97846.44;;;12.46;100.00
27984;BME280;15317;50.360;8.726;2023-04-01T13:18:22;97840.16;;;12.46;100.00
27984;BME280;15317;50.360;8.726;2023-04-01T13:22:30;97836.81;;;12.37;100.00
27984;BME280;15317;50.360;8.726;2023-04-01T13:26:41;97844.78;;;12.25;100.00
27984;BME280;15317;50.360;8.726;2023-04-01T13:30:55;97840.78;;;12.08;100.00
27984;BME280;15317;50.360;8.726;2023-04-01T13:35:10;97850.44;;;11.98;100.00
27984;BME280;15317;50.360;8.726;2023-04-01T13:39:29;97851.06;;;11.80;100.00
27984;BME280;15317;50.360;8.726;2023-04-01T13:43:39;97856.03;;;11.70;100.00
27984;BME280;15317;50.360;8.726;2023-04-01T13:47:55;97853.94;;;11.72;100.00
27984;BME280;15317;50.360;8.726;2023-04-01T13:52:15;97863.38;;;11.76;100.00
27984;BME280;15317;50.360;8.726;2023-04-01T13:56:28;97862.56;;;11.82;100.00
27984;BME280;15317;50.360;8.726;2023-04-01T14:00:39;97857.94;;;11.89;100.00
27984;BME280;15317;50.360;8.726;2023-04-01T14:04:55;97861.50;;;11.83;100.00
27984;BME280;15317;50.360;8.726;2023-04-01T14:09:25;97860.66;;;11.82;100.00
27984;BME280;15317;50.360;8.726;2023-04-01T14:13:34;97861.31;;;11.91;100.00
27984;BME280;15317;50.360;8.726;2023-04-01T14:17:52;97871.16;;;12.05;100.00
27984;BME280;15317;50.360;8.726;2023-04-01T14:22:00;97863.19;;;12.10;100.00
27984;BME280;15317;50.360;8.726;2023-04-01T14:30:36;97877.66;;;12.31;100.00
27984;BME280;15317;50.360;8.726;2023-04-01T14:34:53;97878.44;;;12.64;100.00
27984;BME280;15317;50.360;8.726;2023-04-01T14:39:12;97872.50;;;13.13;100.00
27984;BME280;15317;50.360;8.726;2023-04-01T14:47:47;97881.09;;;13.93;100.00
27984;BME280;15317;50.360;8.726;2023-04-01T14:51:53;97880.13;;;14.12;100.00
27984;BME280;15317;50.360;8.726;2023-04-01T14:55:57;97894.56;;;14.19;100.00
27984;BME280;15317;50.360;8.726;2023-04-01T15:00:05;97895.44;;;14.13;98.89
27984;BME280;15317;50.360;8.726;2023-04-01T15:04:27;97892.50;;;13.83;97.06
27984;BME280;15317;50.360;8.726;2023-04-01T15:08:42;97898.94;;;13.57;92.47
27984;BME280;15317;50.360;8.726;2023-04-01T15:12:56;97903.22;;;13.40;98.55
27984;BME280;15317;50.360;8.726;2023-04-01T15:17:13;97910.34;;;13.41;99.10
27984;BME280;15317;50.360;8.726;2023-04-01T15:21:44;97909.47;;;13.47;100.00
27984;BME280;15317;50.360;8.726;2023-04-01T15:26:11;97916.63;;;13.41;100.00
27984;BME280;15317;50.360;8.726;2023-04-01T15:30:22;97909.09;;;13.43;99.65
27984;BME280;15317;50.360;8.726;2023-04-01T15:34:34;97930.00;;;13.56;100.00
27984;BME280;15317;50.360;8.726;2023-04-01T15:38:42;97946.03;;;13.33;92.71
27984;BME280;15317;50.360;8.726;2023-04-01T15:43:02;97948.84;;;12.67;98.14
27984;BME280;15317;50.360;8.726;2023-04-01T15:47:09;97933.28;;;11.95;100.00
27984;BME280;15317;50.360;8.726;2023-04-01T15:51:28;97940.25;;;11.50;100.00
27984;BME280;15317;50.360;8.726;2023-04-01T15:55:39;97958.25;;;11.10;100.00
27984;BME280;15317;50.360;8.726;2023-04-01T16:00:11;97974.41;;;10.84;100.00
27984;BME280;15317;50.360;8.726;2023-04-01T16:04:27;97972.09;;;10.59;100.00
27984;BME280;15317;50.360;8.726;2023-04-01T16:13:18;97973.84;;;10.18;100.00
27984;BME280;15317;50.360;8.726;2023-04-01T16:17:34;97972.63;;;10.06;100.00
27984;BME280;15317;50.360;8.726;2023-04-01T16:21:45;97981.94;;;9.97;100.00
27984;BME280;15317;50.360;8.726;2023-04-01T16:25:53;97970.38;;;9.88;100.00
27984;BME280;15317;50.360;8.726;2023-04-01T16:30:09;97971.78;;;9.84;100.00
27984;BME280;15317;50.360;8.726;2023-04-01T16:34:30;97986.59;;;9.81;100.00
27984;BME280;15317;50.360;8.726;2023-04-01T16:38:37;97986.50;;;9.75;100.00
27984;BME280;15317;50.360;8.726;2023-04-01T16:42:46;97985.66;;;9.74;100.00
27984;BME280;15317;50.360;8.726;2023-04-01T16:46:52;97990.50;;;9.79;100.00
27984;BME280;15317;50.360;8.726;2023-04-01T16:50:59;97998.53;;;9.87;100.00
27984;BME280;15317;50.360;8.726;2023-04-01T16:55:08;98012.41;;;9.99;100.00
27984;BME280;15317;50.360;8.726;2023-04-01T16:59:20;98016.63;;;10.01;100.00
27984;BME280;15317;50.360;8.726;2023-04-01T17:03:27;98028.19;;;10.10;100.00
27984;BME280;15317;50.360;8.726;2023-04-01T17:07:40;98029.84;;;10.11;100.00
27984;BME280;15317;50.360;8.726;2023-04-01T17:11:49;98036.22;;;10.18;100.00
27984;BME280;15317;50.360;8.726;2023-04-01T17:16:04;98035.75;;;10.29;100.00
27984;BME280;15317;50.360;8.726;2023-04-01T17:20:18;98040.88;;;10.45;100.00
27984;BME280;15317;50.360;8.726;2023-04-01T17:24:38;98046.66;;;10.57;100.00
27984;BME280;15317;50.360;8.726;2023-04-01T17:28:49;98043.41;;;10.68;100.00
27984;BME280;15317;50.360;8.726;2023-04-01T17:33:10;98063.91;;;10.71;100.00
27984;BME280;15317;50.360;8.726;2023-04-01T17:37:28;98061.19;;;10.71;100.00
27984;BME280;15317;50.360;8.726;2023-04-01T17:41:42;98062.72;;;10.58;100.00
27984;BME280;15317;50.360;8.726;2023-04-01T17:45:53;98071.03;;;10.50;100.00
27984;BME280;15317;50.360;8.726;2023-04-01T17:50:04;98085.34;;;10.44;100.00
27984;BME280;15317;50.360;8.726;2023-04-01T17:54:20;98102.81;;;10.35;100.00
27984;BME280;15317;50.360;8.726;2023-04-01T17:58:34;98110.78;;;10.22;100.00
27984;BME280;15317;50.360;8.726;2023-04-01T18:02:47;98120.69;;;10.15;100.00
27984;BME280;15317;50.360;8.726;2023-04-01T18:07:07;98124.72;;;10.04;100.00
27984;BME280;15317;50.360;8.726;2023-04-01T18:11:17;98134.88;;;9.96;100.00
27984;BME280;15317;50.360;8.726;2023-04-01T18:15:32;98139.06;;;9.83;100.00
27984;BME280;15317;50.360;8.726;2023-04-01T18:19:45;98149.34;;;9.73;100.00
27984;BME280;15317;50.360;8.726;2023-04-01T18:23:55;98148.44;;;9.66;100.00
27984;BME280;15317;50.360;8.726;2023-04-01T18:28:14;98165.97;;;9.70;100.00
27984;BME280;15317;50.360;8.726;2023-04-01T18:32:28;98175.13;;;9.69;100.00
27984;BME280;15317;50.360;8.726;2023-04-01T18:36:38;98180.56;;;9.69;100.00
27984;BME280;15317;50.360;8.726;2023-04-01T18:40:46;98183.50;;;9.68;100.00
27984;BME280;15317;50.360;8.726;2023-04-01T18:44:54;98183.84;;;9.65;100.00
27984;BME280;15317;50.360;8.726;2023-04-01T18:49:06;98199.25;;;9.64;100.00
27984;BME280;15317;50.360;8.726;2023-04-01T18:53:15;98207.41;;;9.64;100.00
27984;BME280;15317;50.360;8.726;2023-04-01T18:57:20;98208.81;;;9.60;100.00
27984;BME280;15317;50.360;8.726;2023-04-01T19:01:26;98217.97;;;9.59;100.00
27984;BME280;15317;50.360;8.726;2023-04-01T19:05:37;98218.31;;;9.56;100.00
27984;BME280;15317;50.360;8.726;2023-04-01T19:09:44;98233.72;;;9.56;100.00
27984;BME280;15317;50.360;8.726;2023-04-01T19:13:52;98237.00;;;9.51;100.00
27984;BME280;15317;50.360;8.726;2023-04-01T19:18:07;98240.75;;;9.50;100.00
27984;BME280;15317;50.360;8.726;2023-04-01T19:22:22;98254.00;;;9.45;100.00
27984;BME280;15317;50.360;8.726;2023-04-01T19:26:35;98250.63;;;9.43;100.00
27984;BME280;15317;50.360;8.726;2023-04-01T19:30:51;98259.13;;;9.40;100.00
27984;BME280;15317;50.360;8.726;2023-04-01T19:35:03;98257.44;;;9.39;100.00
27984;BME280;15317;50.360;8.726;2023-04-01T19:39:24;98262.19;;;9.37;100.00
27984;BME280;15317;50.360;8.726;2023-04-01T19:43:40;98251.75;;;9.34;100.00
27984;BME280;15317;50.360;8.726;2023-04-01T19:47:53;98266.78;;;9.36;100.00
27984;BME280;15317;50.360;8.726;2023-04-01T19:52:03;98265.47;;;9.32;100.00
27984;BME280;15317;50.360;8.726;2023-04-01T19:56:16;98271.22;;;9.29;100.00
27984;BME280;15317;50.360;8.726;2023-04-01T20:00:24;98287.19;;;9.24;100.00
27984;BME280;15317;50.360;8.726;2023-04-01T20:04:29;98286.41;;;9.16;100.00
27984;BME280;15317;50.360;8.726;2023-04-01T20:08:39;98294.22;;;9.10;100.00
27984;BME280;15317;50.360;8.726;2023-04-01T20:12:49;98304.09;;;9.03;100.00
27984;BME280;15317;50.360;8.726;2023-04-01T20:16:58;98315.66;;;8.97;100.00
27984;BME280;15317;50.360;8.726;2023-04-01T20:21:03;98326.00;;;8.94;100.00
27984;BME280;15317;50.360;8.726;2023-04-01T20:25:13;98327.53;;;8.88;100.00
27984;BME280;15317;50.360;8.726;2023-04-01T20:29:36;98328.75;;;8.86;100.00
27984;BME280;15317;50.360;8.726;2023-04-01T20:34:05;98335.72;;;8.80;100.00
27984;BME280;15317;50.360;8.726;2023-04-01T20:38:25;98336.06;;;8.77;100.00
27984;BME280;15317;50.360;8.726;2023-04-01T20:42:42;98341.47;;;8.77;100.00
27984;BME280;15317;50.360;8.726;2023-04-01T20:46:54;98338.94;;;8.76;100.00
27984;BME280;15317;50.360;8.726;2023-04-01T20:50:59;98348.91;;;8.75;100.00
27984;BME280;15317;50.360;8.726;2023-04-01T20:55:21;98351.31;;;8.70;100.00
27984;BME280;15317;50.360;8.726;2023-04-01T20:59:37;98351.00;;;8.65;100.00
27984;BME280;15317;50.360;8.726;2023-04-01T21:03:50;98359.16;;;8.57;100.00
27984;BME280;15317;50.360;8.726;2023-04-01T21:07:55;98365.09;;;8.52;100.00
27984;BME280;15317;50.360;8.726;2023-04-01T21:12:05;98366.28;;;8.50;100.00
27984;BME280;15317;50.360;8.726;2023-04-01T21:16:22;98368.44;;;8.54;100.00
27984;BME280;15317;50.360;8.726;2023-04-01T21:20:38;98371.66;;;8.58;100.00
27984;BME280;15317;50.360;8.726;2023-04-01T21:24:56;98381.28;;;8.60;100.00
27984;BME280;15317;50.360;8.726;2023-04-01T21:29:18;98383.66;;;8.63;100.00
27984;BME280;15317;50.360;8.726;2023-04-01T21:38:16;98403.09;;;8.67;100.00
27984;BME280;15317;50.360;8.726;2023-04-01T21:42:37;98404.78;;;8.68;100.00
27984;BME280;15317;50.360;8.726;2023-04-01T21:46:57;98412.91;;;8.68;100.00
27984;BME280;15317;50.360;8.726;2023-04-01T22:00:18;98429.28;;;8.75;100.00
27984;BME280;15317;50.360;8.726;2023-04-01T22:04:32;98444.53;;;8.67;100.00
27984;BME280;15317;50.360;8.726;2023-04-01T22:08:45;98440.31;;;8.65;100.00
27984;BME280;15317;50.360;8.726;2023-04-01T22:12:54;98436.94;;;8.63;100.00
27984;BME280;15317;50.360;8.726;2023-04-01T22:17:03;98433.56;;;8.61;100.00
27984;BME280;15317;50.360;8.726;2023-04-01T22:21:21;98456.91;;;8.62;100.00
27984;BME280;15317;50.360;8.726;2023-04-01T22:25:29;98461.31;;;8.63;100.00
27984;BME280;15317;50.360;8.726;2023-04-01T22:29:40;98465.03;;;8.62;100.00
27984;BME280;15317;50.360;8.726;2023-04-01T22:33:50;98470.09;;;8.57;100.00
27984;BME280;15317;50.360;8.726;2023-04-01T22:38:00;98466.06;;;8.53;100.00
27984;BME280;15317;50.360;8.726;2023-04-01T22:42:18;98469.09;;;8.50;100.00
27984;BME280;15317;50.360;8.726;2023-04-01T22:46:44;98478.59;;;8.46;100.00
27984;BME280;15317;50.360;8.726;2023-04-01T22:50:55;98484.34;;;8.43;100.00
27984;BME280;15317;50.360;8.726;2023-04-01T22:55:00;98485.03;;;8.37;100.00
27984;BME280;15317;50.360;8.726;2023-04-01T22:59:09;98482.00;;;8.31;100.00
27984;BME280;15317;50.360;8.726;2023-04-01T23:03:18;98487.41;;;8.31;100.00